createdAt,value
2022-08-18T00:04:03.480Z,81.2
2022-08-18T00:10:31.505Z,81.2
2022-08-18T00:16:06.430Z,81.1
2022-08-18T00:21:41.387Z,81.2
2022-08-18T00:27:16.094Z,81.2
2022-08-18T00:32:52.544Z,81.4
2022-08-18T00:38:29.354Z,81.5
2022-08-18T00:44:26.773Z,81.5
2022-08-18T00:49:59.637Z,81.7
2022-08-18T00:55:34.282Z,81.7
2022-08-18T01:01:09.550Z,81.7
2022-08-18T01:06:45.120Z,81.6
2022-08-18T01:12:46.991Z,81.6
2022-08-18T01:18:22.473Z,81.4
2022-08-18T01:23:57.481Z,81.4
2022-08-18T01:29:32.261Z,81.5
2022-08-18T01:35:06.990Z,81.4
2022-08-18T01:41:30.067Z,81.4
2022-08-18T01:47:07.803Z,81.2
2022-08-18T01:52:42.570Z,81.1
2022-08-18T01:58:18.371Z,81
2022-08-18T02:03:53.673Z,81.1
2022-08-18T02:10:16.800Z,81.3
2022-08-18T02:15:51.777Z,81.2
2022-08-18T02:21:26.481Z,81.3
2022-08-18T02:27:01.775Z,81.5
2022-08-18T02:32:36.362Z,81.5
2022-08-18T02:38:17.739Z,81.4
2022-08-18T02:44:14.611Z,81.4
2022-08-18T02:49:47.417Z,81.5
2022-08-18T02:55:23.155Z,81.4
2022-08-18T03:00:58.752Z,81.4
2022-08-18T03:06:34.640Z,81.5
2022-08-18T03:12:10.559Z,81.6
2022-08-18T03:17:45.363Z,81.7
2022-08-18T03:23:30.545Z,81.7
2022-08-18T03:29:09.012Z,81.7
2022-08-18T03:34:43.770Z,81.6
2022-08-18T03:40:18.953Z,81.6
2022-08-18T03:45:54.521Z,81.5
2022-08-18T03:51:29.582Z,81.5
2022-08-18T03:57:04.396Z,81.6
2022-08-18T04:02:40.141Z,81.4
2022-08-18T04:08:14.753Z,81.4
2022-08-18T04:13:49.637Z,81.4
2022-08-18T04:19:28.473Z,81.5
2022-08-18T04:25:03.586Z,81.5
2022-08-18T04:30:39.272Z,81.7
2022-08-18T04:36:21.080Z,81.8
2022-08-18T04:42:18.387Z,81.7
2022-08-18T04:47:51.696Z,81.8
2022-08-18T04:53:29.129Z,81.8
2022-08-18T04:59:04.020Z,81.8
2022-08-18T05:04:39.061Z,81.9
2022-08-18T05:10:13.960Z,82
2022-08-18T05:16:14.043Z,81.9
2022-08-18T05:22:04.000Z,82.1
2022-08-18T05:27:43.025Z,82.1
2022-08-18T05:33:17.905Z,82
2022-08-18T05:38:53.769Z,82.2
2022-08-18T05:44:50.426Z,82
2022-08-18T05:50:22.820Z,82.3
2022-08-18T05:55:57.706Z,82.2
2022-08-18T06:01:32.777Z,82.2
2022-08-18T06:07:07.796Z,82.3
2022-08-18T06:12:47.580Z,82.4
2022-08-18T06:18:23.508Z,82.6
2022-08-18T06:23:59.321Z,82.9
2022-08-18T06:29:34.505Z,83
2022-08-18T06:35:09.377Z,83.8
2022-08-18T06:40:44.205Z,83.8
2022-08-18T06:46:19.030Z,82.5
2022-08-18T06:51:55.849Z,82
2022-08-18T06:57:30.845Z,82.7
2022-08-18T07:03:05.689Z,79.9
2022-08-18T07:08:40.439Z,81.4
2022-08-18T07:14:17.438Z,84.1
2022-08-18T07:19:52.336Z,83.5
2022-08-18T07:25:49.152Z,83.4
2022-08-18T07:31:24.118Z,82.7
2022-08-18T07:36:59.465Z,82.9
2022-08-18T07:43:02.626Z,85.3
2022-08-18T07:48:40.688Z,94.6
2022-08-18T07:54:49.221Z,91.9
2022-08-18T08:00:59.544Z,88.1
2022-08-18T08:06:36.647Z,88
2022-08-18T08:12:11.512Z,87
2022-08-18T08:17:52.394Z,92.6
2022-08-18T08:23:29.132Z,90.2
2022-08-18T08:29:04.924Z,90.4
2022-08-18T08:34:47.499Z,87.8
2022-08-18T08:40:29.229Z,85.3
2022-08-18T08:46:04.331Z,84
2022-08-18T08:51:41.067Z,82.6
2022-08-18T08:57:21.942Z,82.6
2022-08-18T09:02:56.768Z,82.8
2022-08-18T09:08:31.826Z,83.3
2022-08-18T09:14:07.138Z,79.2
2022-08-18T09:19:42.308Z,77.6
2022-08-18T09:25:17.386Z,77.4
2022-08-18T09:30:52.725Z,76.8
2022-08-18T09:36:27.763Z,76.4
2022-08-18T09:42:30.485Z,74.9
2022-08-18T09:48:04.388Z,74.2
2022-08-18T09:53:45.941Z,68.4
2022-08-18T09:59:21.100Z,68.7
2022-08-18T10:05:00.524Z,69.8
2022-08-18T10:11:08.921Z,72.8
2022-08-18T10:17:21.944Z,71.8
2022-08-18T10:23:09.411Z,73.1
2022-08-18T10:28:44.551Z,71.9
2022-08-18T10:34:20.019Z,71.3
2022-08-18T10:40:01.695Z,68.2
2022-08-18T10:45:38.999Z,67.9
2022-08-18T13:10:46.927Z,55.9
2022-08-18T13:16:55.105Z,52.8
2022-08-18T13:22:33.688Z,53.5
2022-08-18T13:28:10.243Z,56.6
2022-08-18T13:34:00.851Z,40.3
2022-08-18T13:39:57.454Z,39.3
2022-08-18T13:45:39.955Z,45.6
2022-08-18T13:51:17.484Z,48.2
2022-08-18T13:56:52.561Z,38.3
2022-08-18T14:02:27.932Z,32.7
2022-08-18T14:08:05.169Z,24.8
2022-08-18T14:13:44.380Z,42.4
2022-08-18T14:19:23.211Z,40.7
2022-08-18T14:24:58.124Z,44.1
2022-08-18T14:30:39.236Z,51.3
2022-08-18T14:36:30.815Z,53.3
2022-08-18T14:42:41.596Z,55.9
2022-08-18T14:48:28.393Z,38.5
2022-08-18T14:54:03.486Z,42.7
2022-08-18T14:59:39.416Z,43.2
2022-08-18T15:05:24.885Z,49.5
2022-08-18T15:11:03.241Z,54
2022-08-18T15:16:39.846Z,55.8
2022-08-18T15:22:21.840Z,56.1
2022-08-18T15:28:01.165Z,56.4
2022-08-18T15:33:36.641Z,57
2022-08-18T15:39:14.571Z,57.3
2022-08-18T15:45:14.205Z,58.4
2022-08-18T15:50:51.535Z,59.4
2022-08-18T15:56:26.344Z,59.7
2022-08-18T16:02:01.261Z,60.8
2022-08-18T16:07:45.609Z,61.5
2022-08-18T16:13:20.445Z,62.6
2022-08-18T16:18:55.233Z,63.1
2022-08-18T16:24:30.784Z,63.8
2022-08-18T16:30:05.621Z,64.3
2022-08-18T16:35:45.718Z,64.9
2022-08-18T16:41:20.504Z,65.6
2022-08-18T16:47:13.803Z,66.5
2022-08-18T16:52:49.887Z,67.6
2022-08-18T16:58:25.358Z,68.6
2022-08-18T17:04:02.364Z,69.4
2022-08-18T17:09:38.088Z,70.3
2022-08-18T17:15:12.882Z,70.6
2022-08-18T17:20:47.660Z,71.1
2022-08-18T17:26:24.280Z,71.7
2022-08-18T17:32:03.952Z,72
2022-08-18T17:37:38.785Z,72.1
2022-08-18T17:43:35.721Z,72.2
2022-08-18T17:49:08.920Z,72.5
2022-08-18T17:54:43.867Z,72.7
2022-08-18T18:00:19.340Z,73
2022-08-18T18:05:54.070Z,73.1
2022-08-18T18:11:34.857Z,73.2
2022-08-18T18:17:14.513Z,73.6
2022-08-18T18:22:49.599Z,74
2022-08-18T18:28:24.235Z,74.1
2022-08-18T18:33:58.912Z,74.1
2022-08-18T18:39:34.764Z,74.3
2022-08-18T18:45:10.738Z,74.5
2022-08-18T18:50:58.234Z,74.8
2022-08-18T18:56:47.077Z,75.1
2022-08-18T19:02:35.345Z,75.4
2022-08-18T19:08:10.604Z,75.6
2022-08-18T19:13:54.443Z,75.8
2022-08-18T19:19:39.395Z,76
2022-08-18T19:25:14.443Z,76.3
2022-08-18T19:30:50.204Z,76.4
2022-08-18T19:36:27.096Z,76.5
2022-08-18T19:42:23.757Z,76.5
2022-08-18T19:47:56.463Z,76.7
2022-08-18T19:53:31.196Z,76.8
2022-08-18T19:59:19.660Z,77
2022-08-18T20:04:56.791Z,77.1
2022-08-18T20:10:31.627Z,77.3
2022-08-18T20:16:07.214Z,77.4
2022-08-18T20:21:42.112Z,77.5
2022-08-18T20:27:16.867Z,77.5
2022-08-18T20:32:52.057Z,77.5
2022-08-18T20:38:28.061Z,77.5
2022-08-18T20:44:29.859Z,77.6
2022-08-18T20:50:02.886Z,77.6
2022-08-18T20:55:38.832Z,77.7
2022-08-18T21:01:15.875Z,77.8
2022-08-18T21:06:52.191Z,78
2022-08-18T21:12:27.803Z,78.1
2022-08-18T21:18:02.428Z,78.2
2022-08-18T21:23:37.391Z,78.2
2022-08-18T21:29:12.555Z,78.2
2022-08-18T21:34:47.749Z,78.2
2022-08-18T21:40:29.719Z,78.3
2022-08-18T21:46:05.034Z,78.5
2022-08-18T21:51:39.843Z,78.6
2022-08-18T21:57:15.803Z,78.8
2022-08-18T22:02:50.595Z,78.8
2022-08-18T22:08:27.183Z,78.9
2022-08-18T22:14:03.669Z,78.9
2022-08-18T22:19:38.442Z,79
2022-08-18T22:25:13.486Z,79.1
2022-08-18T22:30:48.350Z,79.3
2022-08-18T22:36:23.286Z,79.4
2022-08-18T22:42:20.129Z,79.4
2022-08-18T22:47:52.726Z,79.5
2022-08-18T22:53:27.410Z,79.6
2022-08-18T22:59:19.553Z,79.7
2022-08-18T23:04:55.787Z,79.8
2022-08-18T23:10:30.467Z,79.9
2022-08-18T23:16:32.411Z,80.1
2022-08-18T23:22:09.195Z,80.4
2022-08-18T23:27:43.988Z,80.6
2022-08-18T23:33:18.900Z,80.7
2022-08-18T23:38:53.710Z,80.7
2022-08-18T23:44:50.329Z,80.8
2022-08-18T23:50:23.637Z,80.8
2022-08-18T23:56:03.716Z,80.7
